Time;durP1;ratioP1;P1;durP2;ratioP2;P2;SDS_P1;SDS_P2;PMS_P1;PMS_P2;Temp;Humidity;BMP_temperature;BMP_pressure;BME280_temperature;BME280_humidity;BME280_pressure;Samples;Min_cycle;Max_cycle;Signal;HPM_P1;HPM_P2
2022/02/27 00:00:18;;;;;;;20.15;8.23;;;;;;;-0.68;76.59;103582.50;1753028;81;21049;-93
2022/02/27 00:02:44;;;;;;;20.37;8.10;;;;;;;-0.71;76.67;103586.05;1752419;81;21041;-92
2022/02/27 00:05:11;;;;;;;19.40;8.35;;;;;;;-0.72;76.81;103584.56;1752848;81;21057;-91
2022/02/27 00:07:37;;;;;;;21.23;8.73;;;;;;;-0.73;76.96;103593.05;1752484;81;21759;-92
2022/02/27 00:10:07;;;;;;;14.30;6.92;;;;;;;-0.72;77.15;103590.66;1752766;81;21006;-91
2022/02/27 00:12:34;;;;;;;19.20;7.47;;;;;;;-0.71;77.18;103600.62;1752807;81;21029;-93
2022/02/27 00:15:01;;;;;;;22.70;8.08;;;;;;;-0.70;77.38;103599.51;1752828;81;21304;-93
2022/02/27 00:17:31;;;;;;;17.57;6.90;;;;;;;-0.69;77.43;103599.16;1752719;81;21062;-93
2022/02/27 00:19:56;;;;;;;21.42;7.47;;;;;;;-0.69;77.47;103593.98;1751983;81;21797;-92
2022/02/27 00:22:22;;;;;;;19.40;6.80;;;;;;;-0.67;77.54;103601.17;1752824;81;21010;-92
2022/02/27 00:24:49;;;;;;;17.62;7.05;;;;;;;-0.67;77.49;103598.97;1752837;81;21069;-93
2022/02/27 00:27:16;;;;;;;16.80;6.35;;;;;;;-0.68;77.50;103594.14;1752911;81;21139;-93
2022/02/27 00:29:42;;;;;;;11.45;6.28;;;;;;;-0.68;77.57;103599.31;1752973;81;21034;-93
2022/02/27 00:32:09;;;;;;;17.27;7.60;;;;;;;-0.66;77.64;103590.09;1753139;81;21763;-93
2022/02/27 00:34:35;;;;;;;19.27;5.70;;;;;;;-0.66;77.70;103584.92;1753050;81;21108;-93
2022/02/27 00:37:02;;;;;;;20.15;7.42;;;;;;;-0.65;77.76;103580.28;1752873;81;21124;-92
2022/02/27 00:39:31;;;;;;;14.35;5.53;;;;;;;-0.65;77.75;103583.25;1752458;81;21033;-90
2022/02/27 00:41:58;;;;;;;16.30;5.72;;;;;;;-0.65;77.75;103581.95;1718021;83;21137;-90
2022/02/27 00:44:25;;;;;;;30.08;8.43;;;;;;;-0.68;77.57;103592.84;1665135;84;22593;-91
2022/02/27 00:46:51;;;;;;;17.95;8.53;;;;;;;-0.72;77.40;103588.06;1677067;85;21100;-91
2022/02/27 00:49:18;;;;;;;26.93;8.68;;;;;;;-0.76;77.30;103586.26;1677008;85;21041;-89
2022/02/27 00:51:45;;;;;;;22.32;8.38;;;;;;;-0.82;77.22;103590.34;1676806;85;21176;-90
2022/02/27 00:54:11;;;;;;;22.20;9.28;;;;;;;-0.86;77.25;103589.06;1694561;84;21057;-90
2022/02/27 00:56:38;;;;;;;17.60;8.43;;;;;;;-0.89;77.28;103587.78;1694324;84;21827;-90
2022/02/27 00:59:05;;;;;;;25.05;9.23;;;;;;;-0.91;77.31;103588.89;1694313;84;22320;-90
2022/02/27 01:01:31;;;;;;;23.30;8.78;;;;;;;-0.95;77.37;103589.28;1694522;84;21041;-90
2022/02/27 01:03:58;;;;;;;24.37;8.55;;;;;;;-1.00;77.42;103582.26;1694513;84;21103;-91
2022/02/27 01:06:24;;;;;;;21.07;8.23;;;;;;;-0.97;77.44;103589.47;1694627;84;21007;-92
2022/02/27 01:08:51;;;;;;;24.00;8.68;;;;;;;-0.97;77.55;103585.59;1694706;84;21774;-92
2022/02/27 01:11:18;;;;;;;22.70;7.92;;;;;;;-0.99;77.57;103586.70;1694558;84;21085;-92
2022/02/27 01:13:45;;;;;;;22.52;9.03;;;;;;;-1.02;77.60;103585.42;1694590;84;21155;-92
2022/02/27 01:16:11;;;;;;;17.73;8.03;;;;;;;-1.01;77.67;103584.69;1703982;84;21082;-91
2022/02/27 01:18:38;;;;;;;18.23;8.15;;;;;;;-1.02;77.71;103586.33;1694478;84;21153;-90
2022/02/27 01:21:05;;;;;;;23.32;7.97;;;;;;;-1.04;77.72;103587.81;1694435;84;21721;-92
2022/02/27 01:23:32;;;;;;;17.95;7.40;;;;;;;-1.04;77.73;103586.91;1694304;84;21053;-92
2022/02/27 01:25:58;;;;;;;19.00;7.75;;;;;;;-1.07;77.67;103582.66;1694372;84;21093;-93
2022/02/27 01:28:25;;;;;;;18.30;8.05;;;;;;;-1.10;77.65;103583.23;1694426;84;20995;-92
2022/02/27 01:30:51;;;;;;;16.65;7.10;;;;;;;-1.13;77.70;103580.27;1694595;84;21026;-92
2022/02/27 01:33:18;;;;;;;16.70;7.55;;;;;;;-1.13;77.77;103584.53;1694519;84;21779;-91
2022/02/27 01:35:49;;;;;;;15.38;7.37;;;;;;;-1.17;77.71;103580.66;1694519;84;21070;-92
2022/02/27 01:38:15;;;;;;;17.92;6.97;;;;;;;-1.20;77.79;103580.32;1694631;84;21012;-92
2022/02/27 01:40:42;;;;;;;18.20;7.53;;;;;;;-1.21;77.83;103582.34;1694949;84;21078;-93
2022/02/27 01:43:09;;;;;;;12.35;6.67;;;;;;;-1.23;77.90;103582.53;1725398;81;21050;-91
2022/02/27 01:45:35;;;;;;;16.50;6.80;;;;;;;-1.25;77.93;103581.05;1729358;83;21867;-91
2022/02/27 01:48:02;;;;;;;14.47;6.95;;;;;;;-1.26;77.91;103589.91;1729615;83;21017;-89
2022/02/27 01:50:29;;;;;;;23.10;7.33;;;;;;;-1.28;77.89;103593.59;1729652;83;21065;-90
2022/02/27 01:52:55;;;;;;;21.33;7.65;;;;;;;-1.29;77.91;103593.06;1729454;83;21065;-91
2022/02/27 01:55:23;;;;;;;21.10;7.65;;;;;;;-1.31;77.97;103598.80;1729497;83;21062;-90
2022/02/27 01:57:51;;;;;;;18.87;7.50;;;;;;;-1.33;78.02;103602.84;1703972;83;41466;-91
2022/02/27 02:00:17;;;;;;;17.75;7.10;;;;;;;-1.35;78.08;103601.39;1729399;83;21583;-91
2022/02/27 02:02:44;;;;;;;17.57;7.25;;;;;;;-1.33;78.10;103601.55;1744376;82;21045;-91
2022/02/27 02:05:11;;;;;;;16.93;7.42;;;;;;;-1.35;78.08;103598.81;1744342;82;21031;-91
2022/02/27 02:07:39;;;;;;;19.50;7.65;;;;;;;-1.34;78.09;103604.52;1744330;82;21101;-92
2022/02/27 02:10:06;;;;;;;17.05;7.40;;;;;;;-1.37;77.90;103605.42;1695612;82;22602;-90
2022/02/27 02:12:33;;;;;;;14.75;6.78;;;;;;;-1.39;77.85;103601.73;1744172;82;21034;-92
2022/02/27 02:15:00;;;;;;;19.37;7.42;;;;;;;-1.42;77.84;103605.27;1744118;82;21575;-91
2022/02/27 02:17:26;;;;;;;15.83;7.40;;;;;;;-1.42;78.03;103606.19;1743941;82;21018;-91
2022/02/27 02:19:54;;;;;;;18.80;7.87;;;;;;;-1.44;78.01;103601.21;1744243;82;21120;-92
2022/02/27 02:22:20;;;;;;;22.10;8.83;;;;;;;-1.42;78.11;103602.69;1744421;82;22547;-93
2022/02/27 02:24:47;;;;;;;18.75;6.05;;;;;;;-1.45;78.02;103602.31;1744207;82;21496;-93
2022/02/27 02:27:14;;;;;;;18.92;6.85;;;;;;;-1.47;78.10;103608.58;1744458;82;21085;-90
2022/02/27 02:29:40;;;;;;;20.90;8.60;;;;;;;-1.42;78.43;103604.89;1744036;82;21177;-90
2022/02/27 02:32:08;;;;;;;17.23;8.15;;;;;;;-1.40;78.38;103607.28;1744107;82;21042;-91
2022/02/27 02:34:35;;;;;;;21.95;8.28;;;;;;;-1.42;78.18;103603.60;1744121;82;21742;-92
2022/02/27 02:37:01;;;;;;;18.52;8.45;;;;;;;-1.43;78.11;103608.20;1744297;82;21081;-92
2022/02/27 02:39:30;;;;;;;24.15;9.20;;;;;;;-1.44;78.07;103599.00;1744266;82;21081;-92
2022/02/27 02:41:57;;;;;;;20.92;7.62;;;;;;;-1.46;78.02;103598.81;1744215;82;22398;-92
2022/02/27 02:44:24;;;;;;;18.85;8.25;;;;;;;-1.45;78.26;103596.77;1744027;81;21069;-92
2022/02/27 02:46:51;;;;;;;21.37;7.25;;;;;;;-1.44;78.17;103597.33;1743936;82;21972;-92
2022/02/27 02:49:17;;;;;;;19.20;8.23;;;;;;;-1.47;78.06;103599.54;1743959;82;21038;-91
2022/02/27 02:51:44;;;;;;;17.67;8.25;;;;;;;-1.48;78.00;103606.76;1744086;82;21650;-91
2022/02/27 02:54:11;;;;;;;15.95;6.95;;;;;;;-1.50;77.99;103599.20;1743980;82;21081;-90
2022/02/27 02:56:38;;;;;;;16.75;8.23;;;;;;;-1.53;77.82;103601.78;1743931;82;21025;-92
2022/02/27 02:59:05;;;;;;;25.00;8.43;;;;;;;-1.59;77.70;103607.14;1743828;82;22274;-92
2022/02/27 03:01:32;;;;;;;21.12;9.20;;;;;;;-1.64;77.65;103607.86;1743800;82;21073;-93
2022/02/27 03:04:01;;;;;;;20.17;8.73;;;;;;;-1.68;77.58;103611.19;1744198;82;21101;-93
2022/02/27 03:06:27;;;;;;;16.52;8.18;;;;;;;-1.72;77.61;103608.61;1744172;82;21488;-92
2022/02/27 03:08:53;;;;;;;20.10;9.00;;;;;;;-1.76;77.67;103614.14;1744129;82;21114;-90
2022/02/27 03:11:20;;;;;;;21.70;8.83;;;;;;;-1.79;77.76;103617.26;1744105;82;21753;-90
2022/02/27 03:13:49;;;;;;;22.07;8.90;;;;;;;-1.82;77.77;103622.42;1743985;82;21544;-89
2022/02/27 03:16:15;;;;;;;19.75;8.10;;;;;;;-1.82;77.91;103619.84;1743922;82;21034;-89
2022/02/27 03:18:42;;;;;;;22.05;7.85;;;;;;;-1.83;77.94;103625.76;1743894;82;21300;-90
2022/02/27 03:21:09;;;;;;;17.48;8.13;;;;;;;-1.83;77.94;103627.96;1743959;82;21121;-94
2022/02/27 03:23:35;;;;;;;20.95;7.35;;;;;;;-1.85;77.88;103634.98;1744111;82;21720;-91
2022/02/27 03:26:03;;;;;;;15.58;7.30;;;;;;;-1.87;77.87;103627.05;1744155;82;21065;-92
2022/02/27 03:28:30;;;;;;;17.25;7.25;;;;;;;-1.87;77.94;103636.08;1744156;82;21706;-90
2022/02/27 03:30:56;;;;;;;22.52;8.50;;;;;;;-1.85;78.01;103633.31;1744057;82;21113;-90
2022/02/27 03:33:23;;;;;;;18.02;8.38;;;;;;;-1.87;77.99;103633.50;1744251;82;21081;-90
2022/02/27 03:35:49;;;;;;;17.73;7.40;;;;;;;-1.88;77.93;103630.72;1744336;82;21775;-89
2022/02/27 03:38:18;;;;;;;14.58;7.67;;;;;;;-1.91;77.85;103632.58;1744252;82;21101;-90
2022/02/27 03:41:32;;;;;;;17.20;8.80;;;;;;;-1.92;77.87;103629.80;1744381;82;21062;-95
2022/02/27 03:44:20;;;;;;;19.02;8.88;;;;;;;-1.94;77.94;103630.91;1636427;85;21115;-92
2022/02/27 03:46:46;;;;;;;22.02;10.05;;;;;;;-1.94;77.88;103635.15;1628001;87;21079;-90
2022/02/27 03:49:13;;;;;;;21.10;9.93;;;;;;;-1.97;77.85;103631.46;1623121;87;21835;-90
2022/02/27 03:51:40;;;;;;;18.67;8.58;;;;;;;-1.98;77.87;103633.85;1619080;88;21116;-92
2022/02/27 03:54:06;;;;;;;17.12;8.18;;;;;;;-2.00;77.80;103636.23;1619199;88;21169;-91
2022/02/27 03:56:33;;;;;;;16.52;6.92;;;;;;;-2.01;77.88;103632.17;1618972;88;21229;-91
2022/02/27 03:58:59;;;;;;;10.70;5.83;;;;;;;-2.01;78.14;103630.55;1618962;88;21111;-91
2022/02/27 04:01:26;;;;;;;14.28;5.03;;;;;;;-2.00;78.23;103627.58;1619161;88;21764;-90
2022/02/27 04:03:53;;;;;;;12.37;5.08;;;;;;;-1.95;78.42;103626.50;1619178;88;21142;-91
2022/02/27 04:06:19;;;;;;;10.48;4.33;;;;;;;-1.88;78.56;103627.77;1618931;87;21151;-90
2022/02/27 04:08:46;;;;;;;13.90;5.10;;;;;;;-1.78;78.63;103634.61;1619199;88;22005;-90
2022/02/27 04:11:13;;;;;;;13.43;5.53;;;;;;;-1.73;78.36;103636.45;1619196;87;21052;-90
2022/02/27 04:13:39;;;;;;;13.53;5.85;;;;;;;-1.73;78.22;103638.11;1619400;88;22686;-89
2022/02/27 04:16:06;;;;;;;15.15;7.22;;;;;;;-1.76;77.91;103646.05;1619209;88;21135;-90
2022/02/27 04:18:33;;;;;;;16.07;6.92;;;;;;;-1.84;77.62;103641.62;1622906;88;21821;-89
2022/02/27 04:20:59;;;;;;;17.95;7.75;;;;;;;-1.90;77.57;103640.86;1656855;83;21095;-89
2022/02/27 04:23:26;;;;;;;14.50;8.08;;;;;;;-1.92;77.69;103642.70;1720579;82;21074;-90
2022/02/27 04:25:52;;;;;;;16.02;8.35;;;;;;;-1.92;77.74;103649.16;1741322;82;21769;-89
2022/02/27 04:28:19;;;;;;;18.98;8.68;;;;;;;-1.98;77.72;103645.09;1741370;82;21480;-91
2022/02/27 04:30:46;;;;;;;22.70;9.30;;;;;;;-1.98;77.71;103649.34;1741333;81;21066;-91
2022/02/27 04:33:13;;;;;;;19.87;8.85;;;;;;;-2.01;77.67;103643.79;1741177;81;21085;-92
2022/02/27 04:35:40;;;;;;;19.27;8.45;;;;;;;-2.05;77.65;103643.78;1720597;81;21015;-91
2022/02/27 04:38:07;;;;;;;24.60;9.25;;;;;;;-2.04;77.75;103649.89;1740899;82;21831;-91
2022/02/27 04:40:33;;;;;;;21.48;9.23;;;;;;;-2.07;77.71;103655.58;1740991;82;22164;-91
2022/02/27 04:43:01;;;;;;;18.92;8.63;;;;;;;-2.08;77.68;103657.97;1740912;81;21073;-90
2022/02/27 04:45:28;;;;;;;15.03;7.55;;;;;;;-2.11;77.76;103653.36;1748708;82;21211;-91
2022/02/27 04:47:55;;;;;;;16.90;8.03;;;;;;;-2.12;77.87;103660.56;1749270;82;21121;-90
2022/02/27 04:50:22;;;;;;;16.85;8.13;;;;;;;-2.11;77.84;103664.06;1749189;82;21988;-91
2022/02/27 04:52:49;;;;;;;20.00;9.50;;;;;;;-2.12;77.78;103667.02;1749306;82;21046;-90
2022/02/27 04:55:15;;;;;;;17.85;7.87;;;;;;;-2.13;77.78;103662.95;1749321;82;21102;-89
2022/02/27 04:57:42;;;;;;;21.65;8.50;;;;;;;-2.13;77.88;103665.16;1749498;82;21037;-90
2022/02/27 05:00:17;;;;;;;22.27;8.33;;;;;;;-2.13;77.92;103669.03;1749302;82;21591;-93
2022/02/27 05:02:44;;;;;;;16.75;7.37;;;;;;;-2.12;77.94;103672.52;1749438;82;21770;-92
2022/02/27 05:05:10;;;;;;;18.25;7.53;;;;;;;-2.12;78.01;103670.89;1749421;82;21225;-92
2022/02/27 05:07:37;;;;;;;17.73;8.28;;;;;;;-2.11;78.04;103668.84;1752120;80;21073;-91
2022/02/27 05:10:05;;;;;;;21.68;7.80;;;;;;;-2.11;77.99;103670.52;1730518;82;21056;-90
2022/02/27 05:12:33;;;;;;;19.60;7.78;;;;;;;-2.14;77.96;103668.45;1730980;82;21117;-91
2022/02/27 05:15:00;;;;;;;20.20;8.13;;;;;;;-2.13;77.99;103671.61;1695827;81;21974;-92
2022/02/27 05:17:27;;;;;;;18.90;8.85;;;;;;;-2.13;77.93;103669.03;1734611;80;21185;-92
2022/02/27 05:19:53;;;;;;;16.55;7.90;;;;;;;-2.13;77.90;103675.86;1761466;80;21100;-91
2022/02/27 05:22:20;;;;;;;20.85;8.55;;;;;;;-2.14;77.86;103673.62;1758638;80;21132;-90
2022/02/27 05:24:47;;;;;;;21.17;8.58;;;;;;;-2.16;77.85;103682.83;1750040;80;21574;-91
2022/02/27 05:27:13;;;;;;;16.80;8.18;;;;;;;-2.17;77.80;103681.92;1758005;80;21706;-93
2022/02/27 05:29:40;;;;;;;17.20;7.90;;;;;;;-2.18;77.81;103691.70;1764533;80;21053;-91
2022/02/27 05:32:07;;;;;;;19.85;7.80;;;;;;;-2.18;77.85;103698.16;1730697;82;21078;-92
2022/02/27 05:34:34;;;;;;;18.45;8.25;;;;;;;-2.18;77.98;103695.92;1730880;82;21023;-91
2022/02/27 05:37:01;;;;;;;28.45;17.07;;;;;;;-2.15;78.07;103697.22;1730702;82;21058;-91
2022/02/27 05:39:27;;;;;;;27.37;10.23;;;;;;;-2.14;78.03;103703.30;1739353;80;21419;-91
2022/02/27 05:41:54;;;;;;;23.22;10.32;;;;;;;-2.15;77.91;103704.97;1730940;82;22241;-92
2022/02/27 05:44:20;;;;;;;26.40;11.75;;;;;;;-2.15;77.78;103705.34;1730866;82;21062;-91
2022/02/27 05:46:48;;;;;;;24.00;9.63;;;;;;;-2.16;77.73;103706.06;1731066;80;21047;-90
2022/02/27 05:49:18;;;;;;;20.70;8.88;;;;;;;-2.16;77.75;103704.42;1717005;81;21086;-89
2022/02/27 05:51:49;;;;;;;29.57;10.63;;;;;;;-2.15;77.75;103704.05;1770191;81;21787;-92
2022/02/27 05:54:14;;;;;;;29.10;14.68;;;;;;;-2.13;77.81;103709.41;1749586;80;21093;-78
2022/02/27 05:56:40;;;;;;;24.65;11.12;;;;;;;-2.11;77.82;103710.52;1748490;81;21109;-78
2022/02/27 05:59:07;;;;;;;24.02;10.85;;;;;;;-2.10;77.91;103704.27;1748494;81;21094;-80
2022/02/27 06:01:33;;;;;;;20.37;9.15;;;;;;;-2.05;77.85;103706.10;1748452;81;21138;-78
2022/02/27 06:04:00;;;;;;;25.05;10.15;;;;;;;-2.00;78.05;103712.77;1765035;80;21767;-78
2022/02/27 06:06:26;;;;;;;21.25;10.40;;;;;;;-1.93;78.01;103706.67;1779496;80;20998;-78
2022/02/27 06:08:53;;;;;;;25.57;14.47;;;;;;;-1.91;77.81;103711.31;1780011;80;21065;-80
2022/02/27 06:11:20;;;;;;;42.98;22.20;;;;;;;-1.90;77.68;103719.59;1774288;80;21262;-81
2022/02/27 06:13:46;;;;;;;34.13;16.12;;;;;;;-1.89;77.65;103721.84;1778258;80;20998;-77
2022/02/27 06:16:13;;;;;;;26.55;11.57;;;;;;;-1.86;77.71;103724.77;1750134;80;21805;-78
2022/02/27 06:18:39;;;;;;;22.60;10.28;;;;;;;-1.83;77.78;103725.16;1737177;80;21299;-77
2022/02/27 06:21:06;;;;;;;23.20;11.10;;;;;;;-1.89;77.80;103706.34;1734326;80;21125;-77
2022/02/27 06:23:33;;;;;;;21.10;10.32;;;;;;;-1.70;77.80;103727.59;1732455;80;21118;-78
2022/02/27 06:25:59;;;;;;;21.82;10.28;;;;;;;-1.66;77.77;103724.27;1729894;80;21077;-78
2022/02/27 06:28:26;;;;;;;24.95;11.08;;;;;;;-1.63;77.82;103719.48;1729727;80;22411;-78
2022/02/27 06:30:52;;;;;;;23.75;8.90;;;;;;;-1.54;78.03;103721.33;1736073;80;21046;-77
2022/02/27 06:33:19;;;;;;;16.12;8.08;;;;;;;-1.47;78.08;103719.67;1733216;80;21003;-77
2022/02/27 06:35:46;;;;;;;17.73;8.73;;;;;;;-1.35;78.19;103724.47;1729562;82;21704;-77
2022/02/27 06:38:12;;;;;;;17.02;8.85;;;;;;;-1.27;78.22;103727.64;1729639;80;21598;-77
2022/02/27 06:40:39;;;;;;;16.73;8.93;;;;;;;-1.17;78.13;103740.91;1729807;81;21799;-80
2022/02/27 06:43:07;;;;;;;18.55;9.58;;;;;;;-1.11;78.05;103742.02;1768016;80;21379;-81
2022/02/27 06:45:33;;;;;;;18.48;9.45;;;;;;;-1.07;78.00;103737.42;1777403;80;21566;-81
2022/02/27 06:48:00;;;;;;;18.82;9.38;;;;;;;-1.00;77.97;103736.09;1777034;80;21275;-80
2022/02/27 06:50:27;;;;;;;21.33;8.50;;;;;;;-0.92;78.00;103739.97;1777081;80;21139;-80
2022/02/27 06:52:53;;;;;;;23.20;8.03;;;;;;;-0.82;78.06;103739.97;1776905;80;21790;-80
2022/02/27 06:55:20;;;;;;;18.82;7.37;;;;;;;-0.74;77.98;103747.34;1777236;80;21065;-81
2022/02/27 06:57:47;;;;;;;20.08;7.10;;;;;;;-0.66;77.96;103746.95;1777356;80;21030;-77
2022/02/27 07:00:16;;;;;;;18.57;7.83;;;;;;;-0.57;77.96;103751.92;1777665;80;21053;-78
2022/02/27 07:02:44;;;;;;;17.20;7.58;;;;;;;-0.47;77.91;103748.74;1777457;80;21132;-78
2022/02/27 07:05:10;;;;;;;15.45;6.60;;;;;;;-0.40;77.85;103747.44;1777100;80;21751;-78
2022/02/27 07:07:37;;;;;;;15.20;5.25;;;;;;;-0.30;77.94;103756.84;1777095;80;21160;-78
2022/02/27 07:10:05;;;;;;;12.33;4.95;;;;;;;-0.16;77.97;103756.23;1777292;80;21132;-78
2022/02/27 07:12:33;;;;;;;19.30;10.13;;;;;;;-0.02;77.93;103760.03;1733108;80;21290;-78
2022/02/27 07:15:00;;;;;;;9.33;4.08;;;;;;;0.15;77.86;103763.28;1775625;80;21076;-78
2022/02/27 07:17:27;;;;;;;8.63;2.72;;;;;;;0.29;77.68;103758.41;1777401;80;22574;-77
2022/02/27 07:19:54;;;;;;;11.68;3.80;;;;;;;0.41;77.43;103754.62;1777209;80;21045;-77
2022/02/27 07:22:20;;;;;;;7.45;2.90;;;;;;;0.53;77.21;103756.03;1775548;80;21615;-77
2022/02/27 07:24:47;;;;;;;6.67;2.60;;;;;;;0.63;77.02;103753.19;1767186;81;21082;-84
2022/02/27 07:27:15;;;;;;;7.08;2.87;;;;;;;0.71;76.86;103758.51;1766645;81;21595;-82
2022/02/27 07:29:41;;;;;;;8.83;3.30;;;;;;;0.81;76.61;103759.16;1766837;81;21695;-81
2022/02/27 07:32:11;;;;;;;8.45;3.90;;;;;;;0.89;76.41;103758.34;1766688;81;21050;-82
2022/02/27 07:34:38;;;;;;;11.65;4.58;;;;;;;0.96;76.33;103751.80;1767867;81;21014;-84
2022/02/27 07:37:05;;;;;;;15.53;6.08;;;;;;;1.03;76.10;103752.09;1767938;81;21031;-92
2022/02/27 07:39:32;;;;;;;13.58;7.28;;;;;;;1.10;76.01;103757.61;1768050;81;21591;-84
2022/02/27 07:41:58;;;;;;;13.20;4.55;;;;;;;1.18;75.88;103758.46;1768246;81;21736;-89
2022/02/27 07:44:26;;;;;;;11.75;4.22;;;;;;;1.25;75.77;103758.02;1769749;80;21085;-85
2022/02/27 07:46:53;;;;;;;11.35;3.05;;;;;;;1.30;75.59;103754.65;1775872;80;21072;-91
2022/02/27 07:49:20;;;;;;;12.50;4.55;;;;;;;1.34;75.52;103757.73;1776337;80;21102;-87
2022/02/27 07:51:46;;;;;;;10.48;2.98;;;;;;;1.40;75.25;103748.80;1775843;80;21555;-84
2022/02/27 07:54:13;;;;;;;9.45;3.40;;;;;;;1.42;75.03;103751.18;1775473;80;21942;-91
2022/02/27 07:56:40;;;;;;;8.13;3.20;;;;;;;1.47;75.02;103756.51;1775358;80;21110;-91
2022/02/27 07:59:10;;;;;;;10.10;3.42;;;;;;;1.50;74.77;103751.63;1757795;80;21034;-87
2022/02/27 08:01:40;;;;;;;8.58;2.87;;;;;;;1.53;74.60;103753.28;1775744;80;21579;-89
2022/02/27 08:04:07;;;;;;;6.75;3.27;;;;;;;1.55;74.65;103752.69;1775732;80;21002;-92
2022/02/27 08:06:35;;;;;;;8.65;3.17;;;;;;;1.60;74.58;103753.20;1775620;80;21664;-92
2022/02/27 08:09:05;;;;;;;8.28;3.27;;;;;;;1.62;74.44;103752.99;1775176;80;21105;-83
2022/02/27 08:11:32;;;;;;;9.03;2.50;;;;;;;1.64;74.29;103746.29;1768759;80;21022;-84
2022/02/27 08:13:58;;;;;;;4.72;1.95;;;;;;;1.67;74.29;103751.83;1728934;81;21574;-80
2022/02/27 08:16:25;;;;;;;9.98;1.90;;;;;;;1.71;74.18;103745.30;1726605;82;21713;-81
2022/02/27 08:18:52;;;;;;;9.73;1.60;;;;;;;1.78;74.15;103753.36;1735827;80;21748;-81
2022/02/27 08:21:18;;;;;;;8.55;1.70;;;;;;;1.78;73.60;103750.38;1775302;80;20994;-81
2022/02/27 08:23:45;;;;;;;5.80;1.60;;;;;;;1.79;73.52;103743.53;1775132;80;21054;-78
2022/02/27 08:26:11;;;;;;;6.75;1.77;;;;;;;1.82;73.45;103750.33;1774920;80;21089;-81
2022/02/27 08:28:38;;;;;;;8.48;2.25;;;;;;;1.85;73.45;103744.19;1774805;80;21050;-81
2022/02/27 08:31:05;;;;;;;5.83;2.12;;;;;;;1.87;73.32;103740.08;1775274;80;21781;-80
2022/02/27 08:33:31;;;;;;;5.45;1.82;;;;;;;1.89;73.37;103745.97;1775062;80;21105;-81
2022/02/27 08:35:58;;;;;;;7.95;2.10;;;;;;;1.93;73.26;103736.48;1774762;80;21018;-81
2022/02/27 08:38:26;;;;;;;10.03;2.65;;;;;;;1.94;73.17;103735.70;1750911;80;21083;-80
2022/02/27 08:40:53;;;;;;;3.58;1.85;;;;;;;1.99;73.06;103732.67;1751363;80;21110;-80
2022/02/27 08:43:19;;;;;;;9.53;2.45;;;;;;;2.04;73.06;103737.61;1756346;80;22659;-81
2022/02/27 08:45:46;;;;;;;9.03;2.25;;;;;;;2.05;72.78;103726.86;1774202;80;21073;-81
2022/02/27 08:48:13;;;;;;;8.48;2.58;;;;;;;2.06;72.73;103728.69;1739944;81;21065;-80
2022/02/27 08:50:39;;;;;;;6.03;2.00;;;;;;;2.10;72.65;103729.20;1740215;82;20997;-80
2022/02/27 08:53:06;;;;;;;8.78;2.02;;;;;;;2.15;72.45;103730.97;1744617;81;21076;-81
2022/02/27 08:55:33;;;;;;;11.68;1.82;;;;;;;2.22;72.49;103729.97;1750198;81;21887;-80
2022/02/27 08:57:59;;;;;;;5.80;2.12;;;;;;;2.23;72.24;103726.20;1750290;81;21178;-81
2022/02/27 09:00:26;;;;;;;7.72;1.52;;;;;;;2.25;71.79;103728.97;1750705;81;21594;-83
2022/02/27 09:02:53;;;;;;;4.87;1.50;;;;;;;2.27;71.75;103730.05;1699734;84;21051;-82
2022/02/27 09:05:19;;;;;;;6.83;1.95;;;;;;;2.30;71.70;103731.30;1700311;84;21103;-83
2022/02/27 09:07:46;;;;;;;4.20;1.67;;;;;;;2.36;71.56;103731.42;1700073;84;21785;-83
2022/02/27 09:10:12;;;;;;;3.67;1.70;;;;;;;2.40;71.41;103733.19;1704245;83;21092;-89
2022/02/27 09:12:41;;;;;;;6.35;2.10;;;;;;;2.43;71.04;103727.42;1720965;82;21225;-91
2022/02/27 09:15:09;;;;;;;8.50;1.52;;;;;;;2.45;70.97;103729.80;1746159;80;21090;-92
2022/02/27 09:17:35;;;;;;;7.15;1.70;;;;;;;2.50;70.82;103732.13;1731502;82;21088;-92
2022/02/27 09:20:03;;;;;;;4.62;1.47;;;;;;;2.49;70.70;103724.16;1681353;85;22637;-89
2022/02/27 09:22:30;;;;;;;11.10;2.10;;;;;;;2.44;70.70;103724.98;1681014;85;21096;-92
2022/02/27 09:24:56;;;;;;;4.53;1.57;;;;;;;2.49;70.66;103719.87;1681091;85;21072;-91
2022/02/27 09:27:25;;;;;;;6.08;1.85;;;;;;;2.57;70.45;103731.46;1681152;85;21122;-93
2022/02/27 09:29:51;;;;;;;3.17;1.47;;;;;;;2.62;70.63;103722.08;1681267;85;21056;-92
2022/02/27 09:32:18;;;;;;;6.10;1.80;;;;;;;2.77;70.75;103724.06;1681084;85;21773;-92
2022/02/27 09:34:45;;;;;;;6.37;1.50;;;;;;;2.91;70.73;103719.93;1681034;85;21140;-92
2022/02/27 09:37:11;;;;;;;8.73;1.85;;;;;;;3.05;70.57;103725.64;1681098;85;21093;-93
2022/02/27 09:39:38;;;;;;;4.87;1.90;;;;;;;3.11;70.31;103718.45;1681130;85;21084;-91
2022/02/27 09:42:05;;;;;;;6.17;1.98;;;;;;;3.25;70.45;103723.41;1681029;85;21076;-90
2022/02/27 09:44:39;;;;;;;5.12;1.65;;;;;;;3.29;70.04;103732.06;1680868;85;22609;-90
2022/02/27 09:47:14;;;;;;;7.35;1.70;;;;;;;3.18;69.57;103726.14;1685538;85;21079;-92
2022/02/27 09:49:45;;;;;;;4.95;1.87;;;;;;;3.15;69.50;103732.31;1685739;85;21084;-92
2022/02/27 09:52:11;;;;;;;5.12;1.70;;;;;;;3.20;69.47;103729.81;1685469;85;21270;-92
2022/02/27 09:54:37;;;;;;;4.78;1.95;;;;;;;3.24;69.40;103734.95;1685953;85;21067;-92
2022/02/27 09:57:04;;;;;;;8.33;1.82;;;;;;;3.26;69.23;103724.31;1686040;85;21779;-92
2022/02/27 09:59:31;;;;;;;5.47;1.98;;;;;;;3.29;69.16;103728.16;1735972;82;21070;-93
2022/02/27 10:01:59;;;;;;;3.45;2.08;;;;;;;3.34;69.04;103722.50;1671134;85;21614;-92
2022/02/27 10:04:26;;;;;;;6.45;2.15;;;;;;;3.38;68.77;103732.45;1671170;84;21146;-93
2022/02/27 10:06:52;;;;;;;4.58;1.87;;;;;;;3.35;68.62;103730.86;1741413;82;21666;-92
2022/02/27 10:09:25;;;;;;;7.78;1.90;;;;;;;3.34;68.63;103726.40;1735879;82;21763;-93
2022/02/27 10:11:52;;;;;;;4.00;1.60;;;;;;;3.37;68.56;103721.13;1736168;82;21104;-91
2022/02/27 10:14:27;;;;;;;5.12;2.02;;;;;;;3.41;68.48;103731.08;1736108;82;21079;-92
2022/02/27 10:17:06;;;;;;;5.37;2.17;;;;;;;3.34;68.16;103726.40;1735788;82;21596;-92
2022/02/27 10:19:39;;;;;;;7.22;2.45;;;;;;;3.33;68.19;103729.78;1735937;82;21502;-92
2022/02/27 10:22:04;;;;;;;4.87;2.60;;;;;;;3.42;68.23;103736.84;1735426;82;21738;-92
2022/02/27 10:24:33;;;;;;;6.10;2.80;;;;;;;3.46;68.07;103736.39;1735949;82;21336;-91
2022/02/27 10:26:59;;;;;;;4.30;2.40;;;;;;;3.52;68.02;103745.20;1735887;82;21620;-90
2022/02/27 10:29:27;;;;;;;5.75;2.15;;;;;;;3.60;67.94;103748.19;1671020;85;21100;-91
2022/02/27 10:31:55;;;;;;;7.45;2.47;;;;;;;3.56;67.64;103738.63;1670715;85;21124;-91
2022/02/27 10:34:30;;;;;;;4.17;1.98;;;;;;;3.55;67.59;103741.98;1670775;84;21762;-91
2022/02/27 10:37:04;;;;;;;5.28;2.35;;;;;;;3.62;67.59;103743.14;1670933;85;21100;-91
2022/02/27 10:39:50;;;;;;;9.43;2.15;;;;;;;3.64;67.60;103744.22;1671318;84;21092;-91
2022/02/27 10:42:27;;;;;;;4.83;1.50;;;;;;;3.70;67.41;103736.66;1735967;82;21519;-91
2022/02/27 10:45:00;;;;;;;6.12;2.27;;;;;;;3.75;67.29;103734.89;1735753;82;21520;-91
2022/02/27 10:47:37;;;;;;;4.08;2.00;;;;;;;3.68;67.04;103736.88;1735451;82;22747;-92
2022/02/27 10:50:13;;;;;;;6.08;1.80;;;;;;;3.62;66.99;103735.33;1673223;85;21083;-92
2022/02/27 10:52:45;;;;;;;5.72;2.12;;;;;;;3.65;67.07;103739.56;1736005;82;21098;-92
2022/02/27 10:55:12;;;;;;;7.58;2.08;;;;;;;3.63;67.10;103731.58;1735734;82;21626;-92
2022/02/27 10:57:46;;;;;;;4.08;1.70;;;;;;;3.68;67.13;103731.67;1672993;85;21198;-92
2022/02/27 11:00:20;;;;;;;5.05;2.90;;;;;;;3.70;67.10;103734.44;1673159;85;21194;-91
2022/02/27 11:02:50;;;;;;;6.22;2.80;;;;;;;3.73;67.13;103728.22;1735839;82;21019;-91
2022/02/27 11:05:19;;;;;;;7.78;2.50;;;;;;;3.84;67.22;103725.39;1736145;82;21105;-91
2022/02/27 11:07:49;;;;;;;4.60;1.92;;;;;;;3.87;67.05;103722.71;1735515;82;21031;-91
2022/02/27 11:10:18;;;;;;;7.75;2.58;;;;;;;3.80;66.52;103719.34;1735684;82;21030;-91
2022/02/27 11:12:44;;;;;;;3.17;1.40;;;;;;;3.73;66.32;103717.80;1735735;82;21801;-91
2022/02/27 11:15:14;;;;;;;4.80;1.65;;;;;;;3.64;65.83;103716.86;1672780;85;21032;-91
2022/02/27 11:17:42;;;;;;;7.37;2.35;;;;;;;3.49;65.38;103713.63;1673127;85;21072;-92
2022/02/27 11:20:09;;;;;;;7.58;1.90;;;;;;;3.41;65.93;103721.06;1735624;82;21148;-91
2022/02/27 11:22:35;;;;;;;6.65;1.82;;;;;;;3.31;65.82;103708.80;1735675;82;21082;-91